Time;durP1;ratioP1;P1;durP2;ratioP2;P2;SDS_P1;SDS_P2;PMS_P1;PMS_P2;Temp;Humidity;BMP_temperature;BMP_pressure;BME280_temperature;BME280_humidity;BME280_pressure;Samples;Min_cycle;Max_cycle;Signal;HPM_P1;HPM_P2
2021/05/22 00:00:14;;;;;;;2.45;0.63;;;12.10;94.50;;;;;;5022726;28;20374;-70
2021/05/22 00:02:40;;;;;;;1.45;0.60;;;12.00;94.90;;;;;;5007600;28;20053;-70
2021/05/22 00:05:08;;;;;;;1.55;0.80;;;12.00;95.80;;;;;;5001903;28;20054;-70
2021/05/22 00:07:35;;;;;;;3.20;0.60;;;11.90;95.80;;;;;;5007962;28;20092;-70
2021/05/22 00:10:04;;;;;;;1.52;0.50;;;11.90;95.80;;;;;;5022257;28;20049;-70
2021/05/22 00:12:31;;;;;;;1.63;0.47;;;11.90;96.40;;;;;;5009067;28;20319;-71
2021/05/22 00:14:58;;;;;;;3.08;0.55;;;11.80;96.90;;;;;;5006504;28;20050;-70
2021/05/22 00:17:25;;;;;;;2.80;0.77;;;11.70;97.10;;;;;;5005405;28;21239;-71
2021/05/22 00:19:52;;;;;;;1.10;0.50;;;11.80;96.80;;;;;;5004857;28;20054;-70
2021/05/22 00:22:18;;;;;;;2.53;0.55;;;11.80;97.90;;;;;;5010461;28;20038;-70
2021/05/22 00:24:45;;;;;;;2.58;0.57;;;11.70;96.70;;;;;;5015731;28;20120;-70
2021/05/22 00:27:12;;;;;;;1.50;0.38;;;11.70;97.30;;;;;;5003855;28;20108;-70
2021/05/22 00:29:38;;;;;;;1.40;0.47;;;11.70;97.10;;;;;;5010791;28;20512;-70
2021/05/22 00:32:05;;;;;;;2.28;0.70;;;11.70;98.00;;;;;;5008998;28;20119;-70
2021/05/22 00:34:32;;;;;;;0.88;0.47;;;11.60;98.30;;;;;;5021218;28;20481;-70
2021/05/22 00:36:59;;;;;;;2.63;0.77;;;11.70;97.50;;;;;;5019228;28;20046;-70
2021/05/22 00:39:26;;;;;;;1.90;0.73;;;11.70;97.80;;;;;;5009120;28;20104;-70
2021/05/22 00:41:53;;;;;;;2.23;0.87;;;11.60;97.90;;;;;;5011919;28;20045;-70
2021/05/22 00:44:20;;;;;;;2.72;0.70;;;11.60;97.90;;;;;;5027722;28;20301;-71
2021/05/22 00:47:20;;;;;;;3.03;0.90;;;11.60;97.90;;;;;;5010746;28;20077;-70
2021/05/22 00:49:47;;;;;;;4.53;1.00;;;11.60;98.20;;;;;;5024284;28;20050;-70
2021/05/22 00:52:14;;;;;;;3.15;0.65;;;11.60;98.20;;;;;;5017035;28;20084;-70
2021/05/22 00:54:41;;;;;;;2.08;0.65;;;11.60;98.10;;;;;;5009834;28;20053;-71
2021/05/22 00:57:08;;;;;;;2.50;0.73;;;11.50;98.30;;;;;;5007702;28;20096;-71
2021/05/22 01:03:51;;;;;;;2.00;0.63;;;11.60;99.10;;;;;;5010490;28;20049;-71
2021/05/22 01:06:24;;;;;;;2.65;0.57;;;11.50;98.40;;;;;;5007969;28;20095;-70
2021/05/22 01:08:54;;;;;;;2.42;0.50;;;11.50;98.70;;;;;;5003215;28;20100;-71
2021/05/22 01:11:48;;;;;;;3.67;0.60;;;11.50;98.40;;;;;;4998191;28;20403;-71
2021/05/22 01:14:26;;;;;;;2.80;0.80;;;11.40;98.70;;;;;;5014460;28;20049;-71
2021/05/22 01:16:54;;;;;;;;;;;11.40;99.10;;;;;;5002526;28;20045;-71
2021/05/22 01:19:42;;;;;;;2.40;0.57;;;11.50;98.40;;;;;;5001935;28;20430;-70
2021/05/22 01:22:10;;;;;;;1.90;0.60;;;11.40;98.50;;;;;;5003001;28;20136;-71
2021/05/22 01:24:49;;;;;;;3.10;0.60;;;11.40;98.60;;;;;;5008500;28;20358;-71
2021/05/22 01:27:17;;;;;;;2.00;0.82;;;11.50;98.80;;;;;;5007042;28;20130;-71
2021/05/22 01:29:44;;;;;;;2.55;0.70;;;11.50;99.10;;;;;;5009955;28;20136;-71
2021/05/22 01:32:11;;;;;;;1.67;0.60;;;11.40;99.10;;;;;;5007489;28;20046;-71
2021/05/22 01:34:39;;;;;;;1.95;0.60;;;11.40;99.40;;;;;;5006779;28;20037;-71
2021/05/22 01:37:06;;;;;;;3.05;0.73;;;11.40;99.20;;;;;;5004530;28;20049;-71
2021/05/22 01:39:32;;;;;;;3.08;0.90;;;11.40;99.10;;;;;;5004521;28;20046;-71
2021/05/22 01:42:00;;;;;;;2.22;0.80;;;11.40;99.20;;;;;;5008549;28;20100;-71
2021/05/22 01:44:30;;;;;;;2.10;0.60;;;11.30;99.80;;;;;;5006336;28;20073;-71
2021/05/22 01:46:58;;;;;;;2.92;0.73;;;11.30;99.40;;;;;;5005911;28;20054;-71
2021/05/22 01:49:26;;;;;;;;;;;11.30;99.90;;;;;;5008840;28;20081;-71
2021/05/22 01:51:54;;;;;;;2.97;0.63;;;11.20;99.90;;;;;;5004288;28;19967;-71
2021/05/22 01:54:23;;;;;;;1.13;0.50;;;11.20;99.70;;;;;;5002218;28;20085;-71
2021/05/22 01:56:51;;;;;;;1.60;0.52;;;11.20;99.90;;;;;;5005483;28;20050;-71
2021/05/22 01:59:19;;;;;;;1.63;0.55;;;11.10;99.90;;;;;;5005321;28;20504;-71
2021/05/22 02:01:51;;;;;;;2.40;0.77;;;11.10;99.90;;;;;;5005456;28;20046;-71
2021/05/22 02:04:20;;;;;;;2.22;0.52;;;11.00;99.90;;;;;;5004149;28;20046;-71
2021/05/22 02:06:49;;;;;;;2.15;0.50;;;11.00;99.90;;;;;;5013611;28;21181;-71
2021/05/22 02:09:19;;;;;;;1.85;0.70;;;11.00;99.90;;;;;;5005420;28;20523;-71
2021/05/22 02:11:48;;;;;;;1.98;0.50;;;11.00;99.90;;;;;;5008782;28;20115;-70
2021/05/22 02:14:22;;;;;;;4.80;0.70;;;10.90;99.90;;;;;;5007425;28;20058;-71
2021/05/22 02:16:51;;;;;;;0.82;0.50;;;10.90;99.90;;;;;;5004608;28;20096;-71
2021/05/22 02:19:21;;;;;;;2.95;0.60;;;10.90;99.90;;;;;;5000171;28;20417;-71
2021/05/22 02:21:48;;;;;;;2.35;0.60;;;11.00;99.90;;;;;;5001581;28;20062;-71
2021/05/22 02:24:18;;;;;;;4.88;0.70;;;11.00;99.90;;;;;;5008230;28;20077;-71
2021/05/22 02:26:45;;;;;;;1.55;0.55;;;11.00;99.90;;;;;;5013263;28;20085;-70
2021/05/22 02:29:16;;;;;;;1.80;0.47;;;11.00;99.90;;;;;;5008044;28;20045;-71
2021/05/22 02:31:46;;;;;;;1.45;0.65;;;11.00;99.90;;;;;;5010787;28;20053;-71
2021/05/22 02:34:15;;;;;;;2.08;0.50;;;11.00;99.90;;;;;;5013026;28;20645;-70
2021/05/22 02:36:43;;;;;;;1.63;0.60;;;11.00;99.90;;;;;;5031896;28;20091;-71
2021/05/22 02:39:11;;;;;;;;;;;11.00;99.90;;;;;;5019488;28;20116;-71
2021/05/22 02:41:39;;;;;;;2.22;0.43;;;11.00;99.90;;;;;;5007431;28;20619;-71
2021/05/22 02:44:08;;;;;;;1.48;0.50;;;10.90;99.90;;;;;;5011315;28;21216;-71
2021/05/22 02:46:41;;;;;;;0.95;0.40;;;10.90;99.90;;;;;;5008774;28;20426;-71
2021/05/22 02:49:09;;;;;;;3.38;0.68;;;10.90;99.90;;;;;;5009844;28;20100;-71
2021/05/22 02:51:37;;;;;;;1.00;0.40;;;10.90;99.90;;;;;;5037508;28;20054;-70
2021/05/22 02:54:19;;;;;;;2.13;0.55;;;10.90;99.90;;;;;;5005339;28;20073;-70
2021/05/22 02:56:46;;;;;;;2.22;0.70;;;10.90;99.90;;;;;;5006407;28;20441;-71
2021/05/22 02:59:14;;;;;;;1.20;0.50;;;10.80;99.90;;;;;;5013474;28;20108;-71
2021/05/22 03:01:41;;;;;;;2.13;0.50;;;10.80;99.90;;;;;;5007671;28;20050;-70
2021/05/22 03:04:08;;;;;;;4.03;0.70;;;10.80;99.90;;;;;;5008814;28;20185;-71
2021/05/22 03:06:35;;;;;;;1.98;0.50;;;10.80;99.90;;;;;;5009562;28;20112;-71
2021/05/22 03:09:08;;;;;;;2.07;0.50;;;10.80;99.90;;;;;;5033139;28;20053;-71
2021/05/22 03:11:35;;;;;;;1.35;0.50;;;10.80;99.90;;;;;;5024730;28;20123;-71
2021/05/22 03:14:02;;;;;;;1.88;0.50;;;10.80;99.90;;;;;;5010974;28;20050;-71
2021/05/22 03:16:29;;;;;;;1.73;0.50;;;10.80;99.90;;;;;;5005530;28;20088;-71
2021/05/22 03:18:55;;;;;;;1.33;0.50;;;10.80;99.90;;;;;;5007572;28;20092;-71
2021/05/22 03:21:22;;;;;;;3.80;0.70;;;10.70;99.90;;;;;;5013301;28;20046;-71
2021/05/22 03:23:49;;;;;;;2.63;0.50;;;10.70;99.90;;;;;;5008997;28;20081;-71
2021/05/22 03:26:16;;;;;;;2.30;0.40;;;10.70;99.90;;;;;;5040543;28;20668;-71
2021/05/22 03:28:43;;;;;;;1.20;0.47;;;10.60;99.90;;;;;;5006551;28;20139;-71
2021/05/22 03:31:09;;;;;;;1.77;0.50;;;10.60;99.90;;;;;;5012981;28;20050;-71
2021/05/22 03:33:36;;;;;;;0.80;0.43;;;10.50;99.90;;;;;;5011710;28;20041;-71
2021/05/22 03:36:04;;;;;;;2.75;0.68;;;10.50;99.90;;;;;;5024238;28;20054;-71
2021/05/22 03:38:31;;;;;;;;;;;10.50;99.90;;;;;;5011602;28;20053;-71
2021/05/22 03:40:58;;;;;;;1.75;0.60;;;10.50;99.90;;;;;;5014589;28;19921;-71
2021/05/22 03:43:25;;;;;;;2.38;0.60;;;10.40;99.90;;;;;;5009594;28;20046;-71
2021/05/22 03:45:52;;;;;;;2.40;0.75;;;10.40;99.90;;;;;;5009160;28;20108;-71
2021/05/22 03:48:19;;;;;;;2.08;0.47;;;10.40;99.90;;;;;;5009636;28;20038;-71
2021/05/22 03:50:46;;;;;;;1.08;0.45;;;10.30;99.90;;;;;;5024880;28;20113;-71
2021/05/22 03:53:13;;;;;;;3.05;0.50;;;10.30;99.90;;;;;;5008035;28;20045;-71
2021/05/22 03:55:40;;;;;;;0.85;0.47;;;10.30;99.90;;;;;;5010372;28;20669;-71
2021/05/22 03:58:07;;;;;;;1.73;0.52;;;10.30;99.90;;;;;;5021447;28;20038;-71
2021/05/22 04:00:35;;;;;;;2.58;0.60;;;10.30;99.90;;;;;;5003478;28;20046;-71
2021/05/22 04:03:04;;;;;;;2.85;0.68;;;10.30;99.90;;;;;;5007439;28;20448;-71
2021/05/22 04:05:31;;;;;;;1.38;0.50;;;10.30;99.90;;;;;;5004750;28;20112;-71
2021/05/22 04:07:58;;;;;;;1.25;0.55;;;10.20;99.90;;;;;;5012582;28;20057;-72
2021/05/22 04:10:25;;;;;;;1.50;0.57;;;10.20;99.90;;;;;;5028800;28;20054;-71
2021/05/22 04:12:52;;;;;;;1.88;0.70;;;10.20;99.90;;;;;;5009099;28;20717;-71
2021/05/22 04:15:18;;;;;;;1.23;0.60;;;10.20;99.90;;;;;;5009696;28;20097;-71
2021/05/22 04:17:45;;;;;;;2.90;0.50;;;10.20;99.90;;;;;;5004517;28;20194;-71
2021/05/22 04:20:12;;;;;;;1.20;0.50;;;10.20;99.90;;;;;;5029934;28;20112;-71
2021/05/22 04:22:39;;;;;;;1.48;0.40;;;10.20;99.90;;;;;;5013002;28;20092;-71
2021/05/22 04:25:06;;;;;;;1.98;0.55;;;10.20;99.90;;;;;;5010199;28;20077;-71
2021/05/22 04:27:34;;;;;;;2.53;0.60;;;10.20;99.90;;;;;;5006256;28;20192;-71
2021/05/22 04:30:00;;;;;;;1.63;0.45;;;10.20;99.90;;;;;;5013617;28;20119;-71
2021/05/22 04:32:27;;;;;;;1.60;0.60;;;10.10;99.90;;;;;;5021483;28;20049;-73
2021/05/22 04:34:55;;;;;;;2.10;0.60;;;10.10;99.90;;;;;;5005517;28;21959;-71
2021/05/22 04:37:21;;;;;;;3.47;0.73;;;10.10;99.90;;;;;;5010691;28;20049;-71
2021/05/22 04:39:50;;;;;;;2.15;0.70;;;10.10;99.90;;;;;;5006179;28;20413;-71
2021/05/22 04:42:17;;;;;;;1.30;0.47;;;10.10;99.90;;;;;;5001833;28;20042;-72
2021/05/22 04:44:44;;;;;;;3.08;0.82;;;10.10;99.90;;;;;;4999536;28;20477;-70
2021/05/22 04:47:10;;;;;;;1.10;0.32;;;10.10;99.90;;;;;;5007615;28;20461;-71
2021/05/22 04:49:37;;;;;;;1.98;0.50;;;10.00;99.90;;;;;;5001872;28;20081;-71
2021/05/22 04:52:04;;;;;;;1.25;0.45;;;10.10;99.90;;;;;;5000069;28;20058;-71
2021/05/22 04:54:31;;;;;;;1.58;0.60;;;10.00;99.90;;;;;;5011840;28;20141;-71
2021/05/22 04:56:57;;;;;;;1.90;0.50;;;10.00;99.90;;;;;;4998379;28;20054;-72
2021/05/22 04:59:24;;;;;;;2.13;0.50;;;10.00;99.90;;;;;;5003731;28;20351;-71
2021/05/22 05:01:51;;;;;;;2.20;0.50;;;10.00;99.90;;;;;;5003720;28;20050;-71
2021/05/22 05:04:18;;;;;;;2.38;0.70;;;10.00;99.90;;;;;;5003854;28;20464;-71
2021/05/22 05:06:44;;;;;;;1.50;0.47;;;10.00;99.90;;;;;;5005802;28;20081;-71
2021/05/22 05:09:12;;;;;;;1.73;0.50;;;10.00;99.90;;;;;;5003096;28;20116;-71
2021/05/22 05:11:38;;;;;;;0.73;0.40;;;10.00;99.90;;;;;;5005834;28;20049;-71
2021/05/22 05:14:05;;;;;;;2.83;0.70;;;9.90;99.90;;;;;;5002836;28;20045;-72
2021/05/22 05:16:32;;;;;;;1.70;0.60;;;10.00;99.90;;;;;;5002579;28;20046;-71
2021/05/22 05:19:04;;;;;;;2.85;0.70;;;9.90;99.90;;;;;;5000735;28;20087;-71
2021/05/22 05:21:31;;;;;;;1.23;0.52;;;9.90;99.90;;;;;;5015390;28;20057;-70
2021/05/22 05:24:04;;;;;;;1.45;0.60;;;9.90;99.90;;;;;;5006260;28;20500;-71
2021/05/22 05:26:31;;;;;;;2.42;0.82;;;9.90;99.90;;;;;;5003665;28;20049;-71
2021/05/22 05:28:58;;;;;;;1.67;0.45;;;10.00;99.90;;;;;;5000598;28;20104;-71
2021/05/22 05:31:25;;;;;;;2.47;0.68;;;10.00;99.90;;;;;;5005310;28;20548;-71
2021/05/22 05:33:51;;;;;;;2.22;0.63;;;10.00;99.90;;;;;;5007011;28;20451;-71
2021/05/22 05:36:18;;;;;;;1.92;0.40;;;10.00;99.90;;;;;;5000705;28;20053;-72
2021/05/22 05:38:45;;;;;;;1.85;0.68;;;10.00;99.90;;;;;;5002708;28;20108;-71
2021/05/22 05:41:12;;;;;;;1.33;0.52;;;10.00;99.90;;;;;;4997037;28;20054;-72
2021/05/22 05:43:38;;;;;;;1.88;0.50;;;10.00;99.90;;;;;;5006158;28;20054;-71
2021/05/22 05:46:05;;;;;;;1.20;0.40;;;10.10;99.90;;;;;;5003864;28;20316;-71
2021/05/22 05:48:32;;;;;;;1.23;0.50;;;10.10;99.90;;;;;;5005088;28;20053;-71
2021/05/22 05:50:59;;;;;;;2.05;0.60;;;10.10;99.90;;;;;;4999848;28;20054;-71
2021/05/22 05:53:26;;;;;;;3.33;0.90;;;10.10;99.90;;;;;;4992456;28;20050;-71
2021/05/22 05:55:52;;;;;;;2.47;0.70;;;10.00;99.90;;;;;;4993609;28;20540;-71
2021/05/22 05:58:22;;;;;;;2.13;0.77;;;10.00;99.90;;;;;;4998770;28;20124;-71
2021/05/22 06:00:49;;;;;;;1.85;0.55;;;10.00;99.90;;;;;;4998728;28;20045;-71
2021/05/22 06:03:26;;;;;;;2.70;0.60;;;10.00;99.90;;;;;;5004837;28;20054;-71
2021/05/22 06:05:53;;;;;;;0.70;0.50;;;10.00;99.90;;;;;;5001913;28;20097;-72
2021/05/22 06:08:20;;;;;;;1.88;0.60;;;10.00;99.90;;;;;;4998675;28;20105;-71
2021/05/22 06:10:49;;;;;;;2.70;0.70;;;10.00;99.90;;;;;;5005431;28;20385;-71
2021/05/22 06:13:30;;;;;;;2.10;0.60;;;10.00;99.90;;;;;;5003957;28;20046;-72
2021/05/22 06:16:15;;;;;;;0.93;0.52;;;10.00;99.90;;;;;;5001640;28;20482;-71
2021/05/22 06:18:41;;;;;;;1.85;0.85;;;10.00;99.90;;;;;;5001924;28;20085;-71
2021/05/22 06:21:08;;;;;;;2.88;0.95;;;10.00;99.90;;;;;;4993753;28;20531;-71
2021/05/22 06:23:36;;;;;;;2.35;0.73;;;9.90;99.90;;;;;;4994934;28;20081;-71
2021/05/22 06:26:04;;;;;;;0.77;0.50;;;10.00;99.90;;;;;;4990323;28;21605;-71
2021/05/22 06:28:31;;;;;;;1.38;0.50;;;10.00;99.90;;;;;;4988571;28;20160;-71
2021/05/22 06:31:04;;;;;;;1.50;0.50;;;10.00;99.90;;;;;;4988752;28;20611;-71
2021/05/22 06:33:31;;;;;;;1.58;0.70;;;10.00;99.90;;;;;;5020125;28;20053;-71
2021/05/22 06:35:58;;;;;;;2.45;0.70;;;10.00;99.90;;;;;;4994001;28;20188;-71
2021/05/22 06:38:25;;;;;;;1.90;0.77;;;10.00;99.90;;;;;;4995915;28;20050;-71
2021/05/22 06:40:53;;;;;;;0.85;0.50;;;10.00;99.90;;;;;;4997369;28;20042;-71
2021/05/22 06:43:20;;;;;;;0.57;0.43;;;10.00;99.90;;;;;;5011601;28;20046;-71
2021/05/22 06:45:58;;;;;;;1.90;0.70;;;10.00;99.90;;;;;;5008021;28;20129;-71
2021/05/22 06:48:25;;;;;;;3.42;0.80;;;10.00;99.90;;;;;;5001118;28;20467;-71
2021/05/22 06:50:52;;;;;;;2.03;0.60;;;10.00;99.90;;;;;;4999885;28;20070;-71
2021/05/22 06:53:19;;;;;;;0.95;0.50;;;10.00;99.90;;;;;;5001925;28;20437;-71
2021/05/22 06:55:46;;;;;;;1.73;0.70;;;10.00;99.90;;;;;;4995281;28;20046;-71
2021/05/22 06:58:13;;;;;;;1.35;0.40;;;10.10;99.90;;;;;;4998753;28;20050;-71
2021/05/22 07:00:40;;;;;;;2.25;0.82;;;10.10;99.90;;;;;;4996498;28;20200;-72
2021/05/22 07:03:06;;;;;;;2.00;0.70;;;10.10;99.90;;;;;;5007319;28;20575;-72
2021/05/22 07:05:33;;;;;;;2.05;0.75;;;10.10;99.90;;;;;;4991067;28;20108;-72
2021/05/22 07:08:02;;;;;;;0.57;0.50;;;10.10;99.90;;;;;;4989733;28;20132;-72
2021/05/22 07:10:29;;;;;;;1.33;0.70;;;10.10;99.90;;;;;;4990829;28;20053;-71
2021/05/22 07:12:56;;;;;;;2.35;0.80;;;10.10;99.90;;;;;;5006104;28;20499;-71
2021/05/22 07:15:23;;;;;;;1.92;0.60;;;10.10;99.90;;;;;;4991583;28;20455;-71
2021/05/22 07:17:50;;;;;;;1.70;1.00;;;10.10;99.90;;;;;;4992219;28;20054;-71
2021/05/22 07:20:18;;;;;;;1.75;0.60;;;10.10;99.90;;;;;;4990598;28;20104;-71
2021/05/22 07:22:46;;;;;;;2.00;0.70;;;10.10;99.90;;;;;;4987831;28;20050;-71
2021/05/22 07:25:12;;;;;;;1.90;0.70;;;10.10;99.90;;;;;;5007222;28;20069;-71
2021/05/22 07:27:39;;;;;;;1.80;0.90;;;10.20;99.90;;;;;;4989343;28;20066;-71
2021/05/22 07:30:09;;;;;;;1.70;0.80;;;10.20;99.90;;;;;;4991188;28;20055;-71
2021/05/22 07:32:39;;;;;;;1.80;0.73;;;10.20;99.90;;;;;;4987579;28;20128;-72
2021/05/22 07:35:07;;;;;;;2.22;0.90;;;10.20;99.90;;;;;;4988582;28;20430;-71
2021/05/22 07:37:34;;;;;;;;;;;10.30;99.90;;;;;;4988515;28;20053;-71
2021/05/22 07:40:14;;;;;;;1.33;0.88;;;10.30;99.90;;;;;;4990924;28;19984;-71
2021/05/22 07:42:47;;;;;;;1.30;0.70;;;10.30;99.90;;;;;;4993611;28;20453;-71
2021/05/22 07:45:14;;;;;;;1.42;0.73;;;10.30;99.90;;;;;;4992147;28;20046;-74
2021/05/22 07:47:42;;;;;;;2.88;0.90;;;10.30;99.90;;;;;;4997401;28;20145;-71
2021/05/22 07:50:10;;;;;;;1.23;0.90;;;10.40;99.90;;;;;;4995496;28;20104;-71
2021/05/22 07:52:40;;;;;;;1.65;0.70;;;10.40;99.90;;;;;;5000032;28;20119;-72
2021/05/22 07:55:11;;;;;;;1.05;0.75;;;10.40;99.90;;;;;;4999765;28;20449;-71
2021/05/22 07:57:39;;;;;;;0.73;0.63;;;10.40;99.90;;;;;;5010369;28;20077;-71
2021/05/22 08:00:10;;;;;;;0.93;0.70;;;10.50;99.90;;;;;;4998544;28;20135;-71
2021/05/22 08:02:37;;;;;;;2.75;0.90;;;10.50;99.90;;;;;;4997362;28;20046;-71
2021/05/22 08:05:07;;;;;;;1.80;0.70;;;10.50;99.90;;;;;;4997691;28;20054;-71
2021/05/22 08:07:34;;;;;;;2.08;0.90;;;10.50;99.90;;;;;;5027159;28;20312;-71
2021/05/22 08:10:03;;;;;;;1.10;1.00;;;10.50;99.90;;;;;;5000008;28;20050;-70
2021/05/22 08:12:30;;;;;;;1.88;0.85;;;10.50;99.90;;;;;;4998453;28;20099;-71
2021/05/22 08:14:58;;;;;;;1.17;0.70;;;10.50;99.90;;;;;;4997930;28;20042;-71
2021/05/22 08:17:25;;;;;;;0.80;0.60;;;10.50;99.90;;;;;;4996180;28;20074;-71
2021/05/22 08:20:05;;;;;;;1.45;0.70;;;10.50;99.90;;;;;;4996950;28;20513;-71
2021/05/22 08:22:33;;;;;;;1.10;0.70;;;10.50;99.90;;;;;;4996509;28;20046;-71
2021/05/22 08:25:00;;;;;;;0.70;0.60;;;10.50;99.90;;;;;;4997243;28;20195;-71
2021/05/22 08:27:27;;;;;;;1.20;0.70;;;10.50;99.90;;;;;;4996075;28;20497;-71
2021/05/22 08:29:56;;;;;;;1.55;0.70;;;10.50;99.90;;;;;;4995001;28;20497;-71
2021/05/22 08:32:29;;;;;;;1.10;0.80;;;10.50;99.90;;;;;;4993692;28;20078;-70
2021/05/22 08:34:57;;;;;;;1.05;0.82;;;10.50;99.90;;;;;;4996515;28;20050;-71
2021/05/22 08:37:26;;;;;;;1.17;0.80;;;10.50;99.90;;;;;;4996626;28;20101;-71
2021/05/22 08:39:53;;;;;;;0.88;0.70;;;10.50;99.90;;;;;;5014311;28;20399;-71
2021/05/22 08:42:24;;;;;;;2.00;0.90;;;10.50;99.90;;;;;;5010689;28;20069;-71
2021/05/22 08:44:53;;;;;;;2.90;1.30;;;10.50;99.90;;;;;;4997143;28;20056;-71
2021/05/22 08:47:20;;;;;;;1.60;1.10;;;10.60;99.90;;;;;;5009233;28;20489;-71
2021/05/22 08:49:47;;;;;;;1.27;1.17;;;10.60;99.90;;;;;;5000413;28;20057;-71
2021/05/22 08:52:20;;;;;;;2.00;1.20;;;10.60;99.90;;;;;;5006562;28;20074;-70
2021/05/22 08:58:13;;;;;;;1.58;0.80;;;10.60;99.90;;;;;;5000720;28;20053;-71
2021/05/22 09:00:43;;;;;;;1.27;0.88;;;10.60;99.90;;;;;;4992327;28;20054;-71
2021/05/22 09:03:11;;;;;;;0.95;0.82;;;10.60;99.90;;;;;;4995301;28;20100;-71
2021/05/22 09:05:39;;;;;;;;;;;10.60;99.90;;;;;;5006535;28;20069;-70
2021/05/22 09:08:08;;;;;;;1.07;0.90;;;10.70;99.90;;;;;;4988782;28;19929;-71
2021/05/22 09:10:43;;;;;;;0.88;0.60;;;10.70;99.90;;;;;;4987337;28;20073;-71
2021/05/22 09:13:13;;;;;;;0.73;0.60;;;10.80;99.90;;;;;;4996698;28;20728;-71
2021/05/22 09:15:42;;;;;;;1.70;0.70;;;10.80;99.90;;;;;;4996635;28;20042;-71
2021/05/22 09:18:11;;;;;;;;;;;10.90;99.90;;;;;;4992528;28;20082;-71
2021/05/22 09:20:52;;;;;;;1.10;0.80;;;10.90;99.90;;;;;;4996513;28;20318;-70
2021/05/22 09:23:23;;;;;;;1.42;0.55;;;11.00;99.90;;;;;;4984606;28;20104;-71
2021/05/22 09:25:55;;;;;;;1.20;0.55;;;11.00;99.90;;;;;;4991711;28;20473;-71
2021/05/22 09:28:24;;;;;;;0.93;0.77;;;11.00;99.90;;;;;;4993563;28;20053;-71
2021/05/22 09:30:52;;;;;;;0.73;0.40;;;11.00;99.90;;;;;;5006797;28;20426;-71
2021/05/22 09:33:28;;;;;;;0.93;0.50;;;11.00;99.90;;;;;;4991959;28;20402;-71
2021/05/22 09:36:03;;;;;;;0.68;0.50;;;10.90;99.90;;;;;;4992485;28;20086;-71
2021/05/22 09:38:39;;;;;;;0.52;0.40;;;10.90;99.90;;;;;;5002279;28;20045;-71
2021/05/22 09:41:31;;;;;;;0.60;0.45;;;10.90;99.90;;;;;;4989134;28;20042;-71
2021/05/22 09:44:11;;;;;;;0.93;0.60;;;10.90;99.90;;;;;;5004641;28;20402;-71
2021/05/22 09:46:44;;;;;;;0.50;0.50;;;10.90;99.90;;;;;;4990260;28;20058;-70
2021/05/22 09:49:33;;;;;;;0.93;0.60;;;10.90;99.90;;;;;;5020234;28;20122;-70
2021/05/22 09:52:18;;;;;;;1.38;0.80;;;10.90;99.90;;;;;;4993039;28;20061;-70
2021/05/22 09:54:47;;;;;;;0.93;0.70;;;10.90;99.90;;;;;;5027135;28;20050;-70
2021/05/22 09:57:15;;;;;;;;;;;10.90;99.90;;;;;;4996687;28;20909;-72
2021/05/22 09:59:43;;;;;;;;;;;11.00;99.90;;;;;;4997045;28;19984;-70
2021/05/22 10:02:10;;;;;;;4.63;0.60;;;11.00;99.90;;;;;;4993342;28;20430;-70
2021/05/22 10:04:37;;;;;;;1.52;0.80;;;11.00;99.90;;;;;;4995400;28;20305;-70
2021/05/22 10:07:03;;;;;;;0.90;0.77;;;11.00;99.90;;;;;;4997147;28;20088;-71
2021/05/22 10:09:39;;;;;;;0.47;0.45;;;11.10;99.90;;;;;;5015643;28;20129;-71
2021/05/22 10:12:14;;;;;;;1.00;0.60;;;11.10;99.90;;;;;;4999261;28;20054;-71
2021/05/22 10:14:44;;;;;;;1.15;0.70;;;11.10;99.90;;;;;;4994848;28;20085;-71
2021/05/22 10:17:12;;;;;;;1.15;0.80;;;11.20;99.90;;;;;;4997752;28;20053;-71
2021/05/22 10:19:39;;;;;;;1.00;0.65;;;11.20;99.90;;;;;;5002749;28;20046;-71
2021/05/22 10:22:07;;;;;;;1.27;0.85;;;11.20;99.90;;;;;;4997902;28;20042;-71
2021/05/22 10:24:34;;;;;;;1.75;0.70;;;11.30;99.90;;;;;;4998390;28;20405;-71
2021/05/22 10:27:01;;;;;;;1.02;0.77;;;11.30;99.90;;;;;;4997715;28;20096;-71
2021/05/22 10:29:34;;;;;;;1.05;0.63;;;11.40;99.90;;;;;;4996223;28;20481;-71
2021/05/22 10:32:02;;;;;;;0.57;0.47;;;11.40;99.90;;;;;;4994901;28;20192;-70
2021/05/22 10:34:35;;;;;;;0.60;0.40;;;11.40;99.90;;;;;;5011271;28;20046;-70
2021/05/22 10:37:38;;;;;;;1.15;0.40;;;11.40;99.90;;;;;;4994259;28;20097;-71
2021/05/22 10:40:07;;;;;;;1.05;0.50;;;11.30;99.90;;;;;;4996399;28;20096;-70
2021/05/22 10:42:35;;;;;;;0.80;0.38;;;11.20;99.90;;;;;;4996488;28;20050;-71
2021/05/22 10:45:28;;;;;;;0.50;0.30;;;11.10;99.90;;;;;;4999601;28;20049;-70
2021/05/22 10:47:55;;;;;;;2.13;0.40;;;11.10;99.90;;;;;;4998201;28;20116;-71
2021/05/22 10:50:37;;;;;;;0.53;0.50;;;11.10;99.90;;;;;;4997379;28;20571;-70
2021/05/22 10:53:19;;;;;;;1.27;0.60;;;11.10;99.90;;;;;;4995127;28;20050;-70
2021/05/22 10:56:02;;;;;;;0.43;0.43;;;11.10;99.90;;;;;;4994163;28;20042;-70
2021/05/22 10:58:29;;;;;;;0.95;0.55;;;11.10;99.90;;;;;;5028357;28;20047;-70
2021/05/22 11:01:30;;;;;;;2.03;0.82;;;11.10;99.90;;;;;;5008798;28;20465;-71
2021/05/22 11:06:48;;;;;;;1.10;0.60;;;11.20;99.90;;;;;;4993484;28;20279;-70
2021/05/22 11:09:36;;;;;;;0.45;0.45;;;11.20;99.90;;;;;;4995085;28;20100;-71
2021/05/22 11:12:29;;;;;;;1.52;0.73;;;11.20;99.90;;;;;;4995297;28;20053;-71
2021/05/22 11:14:56;;;;;;;1.60;0.73;;;11.30;99.90;;;;;;4995702;28;20062;-71
2021/05/22 11:17:26;;;;;;;2.15;0.90;;;11.30;99.90;;;;;;4997814;28;20070;-70
2021/05/22 11:19:59;;;;;;;2.75;1.08;;;11.20;99.90;;;;;;5033054;28;20042;-70
2021/05/22 11:22:45;;;;;;;1.05;0.70;;;11.20;99.90;;;;;;4993736;28;20053;-71
2021/05/22 11:25:15;;;;;;;2.05;1.20;;;11.20;99.90;;;;;;5011773;28;20100;-70
2021/05/22 11:27:45;;;;;;;3.17;1.10;;;11.20;99.90;;;;;;4998447;28;20104;-70
2021/05/22 11:30:13;;;;;;;2.53;1.17;;;11.20;99.90;;;;;;4994471;28;20046;-70
2021/05/22 11:32:48;;;;;;;2.33;1.15;;;11.20;99.90;;;;;;4990063;28;20141;-70
2021/05/22 11:35:33;;;;;;;1.63;1.10;;;11.30;99.90;;;;;;4991893;28;20038;-71
2021/05/22 11:41:02;;;;;;;1.30;0.80;;;11.30;99.90;;;;;;4989971;28;20500;-71
2021/05/22 11:43:34;;;;;;;1.27;0.85;;;11.30;99.90;;;;;;4984062;28;20038;-71
2021/05/22 11:46:12;;;;;;;1.27;0.95;;;11.30;99.90;;;;;;4996623;28;20128;-71
2021/05/22 11:48:44;;;;;;;1.92;1.00;;;11.30;99.90;;;;;;5004300;28;20428;-71
2021/05/22 11:51:32;;;;;;;1.88;0.88;;;11.30;99.90;;;;;;4998029;28;20104;-72
2021/05/22 11:54:00;;;;;;;2.80;1.10;;;11.30;99.90;;;;;;4998696;28;20042;-71
2021/05/22 11:56:34;;;;;;;2.60;1.10;;;11.40;99.90;;;;;;4997378;28;20142;-71
2021/05/22 11:59:03;;;;;;;1.85;1.20;;;11.40;99.90;;;;;;4996973;28;20128;-71
2021/05/22 12:01:43;;;;;;;2.22;1.20;;;11.40;99.90;;;;;;4993630;28;20049;-71
2021/05/22 12:04:12;;;;;;;2.15;1.30;;;11.40;99.90;;;;;;5008259;28;20050;-71
2021/05/22 12:06:45;;;;;;;1.85;1.15;;;11.40;99.90;;;;;;5023309;28;20324;-71
2021/05/22 12:09:20;;;;;;;2.15;0.90;;;11.40;99.90;;;;;;5012031;28;20050;-71
2021/05/22 12:12:07;;;;;;;2.25;0.85;;;11.40;99.90;;;;;;4997954;28;20073;-72
2021/05/22 12:14:47;;;;;;;1.90;0.70;;;11.40;99.90;;;;;;4992919;28;20054;-71
2021/05/22 12:17:17;;;;;;;1.10;0.60;;;11.50;99.90;;;;;;5007502;28;20138;-71
2021/05/22 12:19:50;;;;;;;2.35;0.85;;;11.60;99.90;;;;;;4996836;28;20125;-71
2021/05/22 12:22:25;;;;;;;2.28;0.77;;;11.70;99.90;;;;;;4995181;28;20165;-71
2021/05/22 12:24:54;;;;;;;1.80;0.77;;;11.70;99.90;;;;;;4997006;28;20123;-71
2021/05/22 12:27:22;;;;;;;2.00;0.70;;;11.80;99.90;;;;;;4992984;28;20126;-71
2021/05/22 12:29:55;;;;;;;2.80;0.90;;;11.80;99.90;;;;;;4993093;28;20054;-71
2021/05/22 12:32:22;;;;;;;2.50;0.98;;;11.80;99.90;;;;;;4992918;28;20077;-71
2021/05/22 12:35:06;;;;;;;1.17;0.60;;;11.90;99.90;;;;;;5025504;28;20379;-71
2021/05/22 12:37:34;;;;;;;2.58;0.80;;;11.90;99.90;;;;;;5029439;28;20050;-71
2021/05/22 12:40:06;;;;;;;4.05;0.77;;;12.00;99.90;;;;;;5007645;28;20120;-71
2021/05/22 12:42:38;;;;;;;1.92;0.65;;;12.10;99.90;;;;;;5025775;28;20105;-71
2021/05/22 12:45:08;;;;;;;2.20;0.80;;;12.10;99.90;;;;;;4991703;28;20073;-71
2021/05/22 12:47:40;;;;;;;2.38;0.80;;;12.00;99.90;;;;;;4991693;28;20128;-71
2021/05/22 12:50:10;;;;;;;2.05;0.82;;;12.00;99.90;;;;;;4991091;28;20053;-71
2021/05/22 12:52:50;;;;;;;2.30;0.70;;;11.90;99.90;;;;;;5023781;28;20099;-72
2021/05/22 12:55:28;;;;;;;1.70;0.80;;;11.90;99.90;;;;;;4992419;28;20838;-71
2021/05/22 12:57:57;;;;;;;1.30;0.80;;;11.90;99.90;;;;;;4991401;28;20073;-72
2021/05/22 13:00:27;;;;;;;2.72;0.98;;;12.00;99.90;;;;;;4995302;28;20046;-71
2021/05/22 13:03:01;;;;;;;3.20;0.88;;;12.00;99.90;;;;;;5005758;28;20038;-71
2021/05/22 13:05:36;;;;;;;2.00;0.70;;;12.00;99.90;;;;;;4992015;28;20046;-71
2021/05/22 13:08:06;;;;;;;2.70;1.00;;;12.10;99.90;;;;;;4996053;28;20069;-71
2021/05/22 13:10:35;;;;;;;0.70;0.60;;;12.10;99.90;;;;;;4995235;28;20124;-72
2021/05/22 13:13:08;;;;;;;1.83;0.80;;;12.20;99.90;;;;;;4994634;28;20046;-71
2021/05/22 13:15:54;;;;;;;2.58;0.95;;;12.30;99.90;;;;;;4996912;28;20058;-72
2021/05/22 13:18:27;;;;;;;2.58;0.77;;;12.40;99.90;;;;;;4995463;28;20069;-72